Time;durP1;ratioP1;P1;durP2;ratioP2;P2;SDS_P1;SDS_P2;PMS_P1;PMS_P2;Temp;Humidity;BMP_temperature;BMP_pressure;BME280_temperature;BME280_humidity;BME280_pressure;Samples;Min_cycle;Max_cycle;Signal;HPM_P1;HPM_P2
2021/07/29 00:00:32;;;;;;;7.35;3.08;;;18.20;99.90;;;;;;6305067;22;20027;-63
2021/07/29 00:02:58;;;;;;;6.47;3.20;;;18.10;99.90;;;;;;6305643;22;20335;-63
2021/07/29 00:05:25;;;;;;;8.32;3.25;;;18.10;99.90;;;;;;6304876;22;20454;-64
2021/07/29 00:07:51;;;;;;;5.88;2.78;;;18.10;99.90;;;;;;6304641;22;20504;-62
2021/07/29 00:10:17;;;;;;;7.53;3.50;;;18.10;99.90;;;;;;6304512;22;20549;-64
2021/07/29 00:12:42;;;;;;;7.20;3.70;;;18.10;99.90;;;;;;6304886;22;20029;-64
2021/07/29 00:15:13;;;;;;;6.80;3.47;;;17.80;99.90;;;;;;6305351;22;20427;-65
2021/07/29 00:20:23;;;;;;;11.40;3.13;;;17.70;99.90;;;;;;6315030;22;20490;-64
2021/07/29 00:22:52;;;;;;;6.35;3.03;;;17.70;99.90;;;;;;6305029;22;20010;-64
2021/07/29 00:25:19;;;;;;;6.93;3.42;;;17.60;99.90;;;;;;6305554;22;20003;-63
2021/07/29 00:27:45;;;;;;;7.55;3.47;;;17.60;99.90;;;;;;6304724;22;20042;-64
2021/07/29 00:30:12;;;;;;;5.55;3.90;;;17.50;99.90;;;;;;6304693;22;20011;-64
2021/07/29 00:32:38;;;;;;;10.23;3.95;;;17.40;99.90;;;;;;6305277;22;20337;-64
2021/07/29 00:35:05;;;;;;;9.38;3.60;;;17.30;99.90;;;;;;6304986;22;20031;-65
2021/07/29 00:37:33;;;;;;;8.02;3.88;;;17.20;99.90;;;;;;6304311;22;20326;-63
2021/07/29 00:39:59;;;;;;;8.40;3.88;;;17.30;99.90;;;;;;6304967;22;19999;-66
2021/07/29 00:42:25;;;;;;;7.75;3.85;;;17.30;99.90;;;;;;6304527;22;20129;-64
2021/07/29 00:44:50;;;;;;;10.63;4.28;;;17.40;99.90;;;;;;6304215;22;20018;-64
2021/07/29 00:47:17;;;;;;;10.15;4.43;;;17.40;99.90;;;;;;6302931;22;20030;-64
2021/07/29 00:49:44;;;;;;;11.32;3.97;;;17.50;99.90;;;;;;6304414;22;20011;-65
2021/07/29 00:52:09;;;;;;;10.15;4.00;;;17.50;99.90;;;;;;6304321;22;20412;-64
2021/07/29 00:54:35;;;;;;;6.70;3.67;;;17.50;99.90;;;;;;6304140;22;20013;-65
2021/07/29 00:57:01;;;;;;;7.60;4.20;;;17.40;99.90;;;;;;6303918;22;20033;-65
2021/07/29 00:59:28;;;;;;;10.55;4.47;;;17.40;99.90;;;;;;6304542;22;20131;-65
2021/07/29 01:01:53;;;;;;;14.20;4.72;;;17.20;99.90;;;;;;6304196;22;20006;-64
2021/07/29 01:04:19;;;;;;;13.38;5.32;;;17.10;99.90;;;;;;6304599;22;20458;-65
2021/07/29 01:06:45;;;;;;;10.90;4.63;;;17.10;99.90;;;;;;6303453;22;20004;-65
2021/07/29 01:09:11;;;;;;;11.20;5.10;;;17.10;99.90;;;;;;6304312;22;20000;-63
2021/07/29 01:11:39;;;;;;;10.10;4.40;;;17.00;99.90;;;;;;6304207;22;20007;-65
2021/07/29 01:14:05;;;;;;;10.57;4.63;;;17.00;99.90;;;;;;6304835;22;20447;-65
2021/07/29 01:16:31;;;;;;;10.65;5.13;;;16.80;99.90;;;;;;6303224;22;19995;-64
2021/07/29 01:18:58;;;;;;;9.82;4.78;;;16.80;99.90;;;;;;6304051;22;20003;-66
2021/07/29 01:21:29;;;;;;;10.20;4.75;;;16.90;99.90;;;;;;6304339;22;20000;-65
2021/07/29 01:23:55;;;;;;;13.38;4.70;;;16.80;99.90;;;;;;6303543;22;20003;-65
2021/07/29 01:26:21;;;;;;;7.97;4.18;;;16.60;99.90;;;;;;6304372;22;20010;-65
2021/07/29 01:28:46;;;;;;;9.82;3.80;;;16.60;99.90;;;;;;6303553;22;20033;-64
2021/07/29 01:31:12;;;;;;;8.45;4.20;;;16.60;99.90;;;;;;6304039;22;20064;-65
2021/07/29 01:33:39;;;;;;;8.38;3.85;;;16.50;99.90;;;;;;6304395;22;19999;-65
2021/07/29 01:36:04;;;;;;;7.47;3.47;;;16.50;99.90;;;;;;6304575;22;20057;-64
2021/07/29 01:38:30;;;;;;;8.43;4.20;;;16.40;99.90;;;;;;6305845;22;20388;-65
2021/07/29 01:40:57;;;;;;;11.07;3.92;;;16.30;99.90;;;;;;6305344;22;20078;-64
2021/07/29 01:43:23;;;;;;;12.82;4.60;;;16.20;99.90;;;;;;6305935;22;20076;-65
2021/07/29 01:45:49;;;;;;;6.95;4.00;;;16.20;99.90;;;;;;6305506;22;20003;-65
2021/07/29 01:48:14;;;;;;;11.77;4.72;;;16.10;99.90;;;;;;6305753;22;19995;-65
2021/07/29 01:50:40;;;;;;;12.27;4.47;;;16.00;99.90;;;;;;6305225;22;20017;-66
2021/07/29 01:53:06;;;;;;;7.85;4.63;;;15.80;99.90;;;;;;6305199;22;19999;-65
2021/07/29 01:55:31;;;;;;;13.90;5.45;;;15.70;99.90;;;;;;6305909;22;20415;-65
2021/07/29 01:57:57;;;;;;;10.38;5.65;;;15.80;99.90;;;;;;6305592;22;20064;-65
2021/07/29 02:00:22;;;;;;;14.45;6.97;;;15.70;99.90;;;;;;6305295;22;20300;-66
2021/07/29 02:02:49;;;;;;;13.43;6.35;;;15.70;99.90;;;;;;6305376;22;20552;-63
2021/07/29 02:05:14;;;;;;;14.88;6.15;;;15.60;99.90;;;;;;6305191;22;20473;-63
2021/07/29 02:07:40;;;;;;;18.75;7.10;;;15.60;99.90;;;;;;6304750;22;20120;-64
2021/07/29 02:10:06;;;;;;;12.57;6.68;;;15.50;99.90;;;;;;6304216;22;20352;-63
2021/07/29 02:12:33;;;;;;;15.95;7.43;;;15.50;99.90;;;;;;6305078;22;19999;-63
2021/07/29 02:14:59;;;;;;;14.07;7.65;;;15.60;99.90;;;;;;6305988;22;20006;-63
2021/07/29 02:17:24;;;;;;;17.58;7.50;;;15.50;99.90;;;;;;6304886;22;20021;-64
2021/07/29 02:19:50;;;;;;;19.33;8.02;;;15.50;99.90;;;;;;6305733;22;20041;-64
2021/07/29 02:22:16;;;;;;;16.23;7.82;;;15.60;99.90;;;;;;6305602;22;20007;-64
2021/07/29 02:24:41;;;;;;;16.63;7.47;;;15.60;99.90;;;;;;6305467;22;20027;-64
2021/07/29 02:27:07;;;;;;;18.00;9.05;;;15.60;99.90;;;;;;6305123;22;20003;-64
2021/07/29 02:29:32;;;;;;;16.25;7.53;;;15.60;99.90;;;;;;6305275;22;19999;-64
2021/07/29 02:31:58;;;;;;;19.58;8.05;;;15.60;99.90;;;;;;6305593;22;20055;-64
2021/07/29 02:34:23;;;;;;;17.10;8.50;;;15.60;99.90;;;;;;6305498;22;19999;-64
2021/07/29 02:36:50;;;;;;;15.85;7.60;;;15.50;99.90;;;;;;6304995;22;19999;-64
2021/07/29 02:39:16;;;;;;;20.98;9.50;;;15.60;99.90;;;;;;6305402;22;20009;-64
2021/07/29 02:41:41;;;;;;;19.98;8.95;;;15.50;99.90;;;;;;6305446;22;20003;-64
2021/07/29 02:44:07;;;;;;;17.40;8.68;;;15.50;99.90;;;;;;6305477;22;20088;-64
2021/07/29 02:46:33;;;;;;;15.93;8.60;;;15.40;99.90;;;;;;6304506;22;20074;-64
2021/07/29 02:48:58;;;;;;;18.08;9.55;;;15.40;99.90;;;;;;6305303;22;20003;-64
2021/07/29 02:51:24;;;;;;;20.45;9.43;;;15.40;99.90;;;;;;6305492;22;19999;-63
2021/07/29 02:53:49;;;;;;;18.15;9.98;;;15.30;99.90;;;;;;6304848;22;20003;-64
2021/07/29 02:56:15;;;;;;;17.75;8.75;;;15.20;99.90;;;;;;6304860;22;20007;-64
2021/07/29 02:58:41;;;;;;;18.60;8.82;;;15.20;99.90;;;;;;6305201;22;20151;-64
2021/07/29 03:01:06;;;;;;;16.27;8.02;;;15.20;99.90;;;;;;6304949;22;20420;-64
2021/07/29 03:03:32;;;;;;;17.42;7.40;;;15.20;99.90;;;;;;6305274;22;20080;-64
2021/07/29 03:05:59;;;;;;;17.30;7.80;;;15.20;99.90;;;;;;6304763;22;20026;-64
2021/07/29 03:08:24;;;;;;;12.55;7.72;;;15.20;99.90;;;;;;6305023;22;20011;-64
2021/07/29 03:10:50;;;;;;;13.15;7.57;;;15.10;99.90;;;;;;6304943;22;20347;-64
2021/07/29 03:13:16;;;;;;;11.38;7.10;;;15.20;99.90;;;;;;6305556;22;20048;-64
2021/07/29 03:15:41;;;;;;;18.90;7.43;;;15.10;99.90;;;;;;6304793;22;20064;-64
2021/07/29 03:18:07;;;;;;;10.30;6.97;;;15.20;99.90;;;;;;6305207;22;20007;-64
2021/07/29 03:20:33;;;;;;;12.52;7.85;;;15.20;99.90;;;;;;6305545;22;20552;-61
2021/07/29 03:22:59;;;;;;;12.10;7.20;;;15.20;99.90;;;;;;6304980;22;20343;-64
2021/07/29 03:25:24;;;;;;;12.30;7.18;;;15.20;99.90;;;;;;6304525;22;19999;-64
2021/07/29 03:27:50;;;;;;;12.93;6.30;;;15.10;99.90;;;;;;6305026;22;20636;-64
2021/07/29 03:30:16;;;;;;;13.10;7.13;;;15.20;99.90;;;;;;6305249;22;20066;-64
2021/07/29 03:32:42;;;;;;;15.88;6.30;;;15.10;99.90;;;;;;6305112;22;20339;-64
2021/07/29 03:35:08;;;;;;;15.48;6.47;;;15.20;99.90;;;;;;6304562;22;20000;-64
2021/07/29 03:37:33;;;;;;;9.48;6.55;;;15.20;99.90;;;;;;6304408;22;20078;-64
2021/07/29 03:40:04;;;;;;;9.50;6.88;;;15.20;99.90;;;;;;6304363;22;20451;-64
2021/07/29 03:42:34;;;;;;;10.05;6.25;;;15.20;99.90;;;;;;6305492;22;20003;-64
2021/07/29 03:45:00;;;;;;;14.40;6.50;;;15.20;99.90;;;;;;6305231;22;20011;-64
2021/07/29 03:47:26;;;;;;;9.68;6.07;;;15.30;99.90;;;;;;6304650;22;20382;-64
2021/07/29 03:49:52;;;;;;;11.18;6.43;;;15.30;99.90;;;;;;6305303;22;20014;-64
2021/07/29 03:52:18;;;;;;;10.93;5.85;;;15.30;99.90;;;;;;6277258;22;19995;-64
2021/07/29 03:54:43;;;;;;;12.48;5.95;;;15.40;99.90;;;;;;6305285;22;20033;-64
2021/07/29 03:57:09;;;;;;;11.35;5.68;;;15.40;99.90;;;;;;6304629;22;20091;-64
2021/07/29 03:59:38;;;;;;;11.25;5.22;;;15.50;99.90;;;;;;6305046;22;20066;-64
2021/07/29 04:02:10;;;;;;;13.73;6.65;;;15.50;99.90;;;;;;6304805;22;20074;-64
2021/07/29 04:04:40;;;;;;;15.80;6.70;;;15.50;99.90;;;;;;6305043;22;20068;-63
2021/07/29 04:07:06;;;;;;;14.65;6.68;;;15.40;99.90;;;;;;6304543;22;19999;-64
2021/07/29 04:09:33;;;;;;;14.98;6.72;;;15.40;99.90;;;;;;6305162;22;20377;-64
2021/07/29 04:11:59;;;;;;;11.18;6.10;;;15.40;99.90;;;;;;6305698;22;19996;-62
2021/07/29 04:14:24;;;;;;;9.20;6.05;;;15.40;99.90;;;;;;6306863;22;20004;-64
2021/07/29 04:16:54;;;;;;;10.60;6.13;;;15.30;99.90;;;;;;6306663;22;20132;-63
2021/07/29 04:19:21;;;;;;;11.35;6.00;;;15.40;99.90;;;;;;6306824;22;20222;-62
2021/07/29 04:21:46;;;;;;;9.48;5.50;;;15.40;99.90;;;;;;6306642;22;20003;-64
2021/07/29 04:24:12;;;;;;;14.63;6.55;;;15.40;99.90;;;;;;6306410;22;20118;-64
2021/07/29 04:26:40;;;;;;;9.93;5.55;;;15.40;99.90;;;;;;6306410;22;20027;-64
2021/07/29 04:29:06;;;;;;;13.23;7.45;;;15.40;99.90;;;;;;6306415;22;20010;-64
2021/07/29 04:31:31;;;;;;;13.57;6.13;;;15.50;99.90;;;;;;6306607;22;19999;-64
2021/07/29 04:33:57;;;;;;;16.55;5.85;;;15.50;99.90;;;;;;6307215;22;19999;-64
2021/07/29 04:36:22;;;;;;;17.27;6.85;;;15.60;99.90;;;;;;6306010;22;20068;-63
2021/07/29 04:38:48;;;;;;;15.68;7.15;;;15.60;99.90;;;;;;6306734;22;20034;-64
2021/07/29 04:41:13;;;;;;;10.48;7.05;;;15.60;99.90;;;;;;6278863;22;20100;-63
2021/07/29 04:43:39;;;;;;;10.85;6.18;;;15.60;99.90;;;;;;6306635;22;20386;-63
2021/07/29 04:46:05;;;;;;;21.63;7.75;;;15.60;99.90;;;;;;6305980;22;20389;-64
2021/07/29 04:48:31;;;;;;;17.17;7.25;;;15.60;99.90;;;;;;6306582;22;20343;-63
2021/07/29 04:51:04;;;;;;;15.65;7.45;;;15.60;99.90;;;;;;6306381;22;20003;-63
2021/07/29 04:53:31;;;;;;;19.10;8.65;;;15.60;99.90;;;;;;6306570;22;19997;-64
2021/07/29 04:55:56;;;;;;;14.68;7.55;;;15.60;99.90;;;;;;6305727;22;19995;-63
2021/07/29 04:58:22;;;;;;;17.85;7.80;;;15.60;99.90;;;;;;6303755;22;20011;-66
2021/07/29 05:00:47;;;;;;;16.15;8.20;;;15.60;99.90;;;;;;6275462;22;20007;-66
2021/07/29 05:03:13;;;;;;;15.40;6.75;;;15.60;99.90;;;;;;6303835;22;20078;-66
2021/07/29 05:05:38;;;;;;;20.73;10.07;;;15.70;99.90;;;;;;6277433;22;20003;-66
2021/07/29 05:08:04;;;;;;;18.00;9.20;;;15.70;99.90;;;;;;6304860;22;20343;-66
2021/07/29 05:10:30;;;;;;;23.33;9.43;;;15.80;99.90;;;;;;6303706;22;20411;-66
2021/07/29 05:12:56;;;;;;;20.80;8.10;;;15.70;99.90;;;;;;6304653;22;20053;-66
2021/07/29 05:15:21;;;;;;;19.40;9.02;;;15.70;99.90;;;;;;6304419;22;20450;-66
2021/07/29 05:17:54;;;;;;;17.65;9.82;;;15.80;99.90;;;;;;6304283;22;20082;-67
2021/07/29 05:20:23;;;;;;;19.13;9.88;;;15.80;99.90;;;;;;6306124;22;20006;-65
2021/07/29 05:22:48;;;;;;;20.58;9.48;;;15.80;99.90;;;;;;6300544;22;20015;-66
2021/07/29 05:25:22;;;;;;;19.42;9.25;;;15.80;99.90;;;;;;6301804;22;20011;-64
2021/07/29 05:27:48;;;;;;;14.88;9.55;;;15.80;99.90;;;;;;6303970;22;20060;-65
2021/07/29 05:30:13;;;;;;;13.90;7.82;;;15.90;99.90;;;;;;6305183;22;20007;-65
2021/07/29 05:32:39;;;;;;;18.35;8.30;;;15.90;99.90;;;;;;6306055;22;19996;-67
2021/07/29 05:35:04;;;;;;;16.30;8.27;;;16.00;99.90;;;;;;6305694;22;19999;-66
2021/07/29 05:37:30;;;;;;;18.40;7.63;;;16.10;99.90;;;;;;6305581;22;20007;-66
2021/07/29 05:39:55;;;;;;;11.52;6.30;;;16.10;99.90;;;;;;6305618;22;20558;-66
2021/07/29 05:42:23;;;;;;;18.10;6.35;;;16.20;99.90;;;;;;6305648;22;20057;-66
2021/07/29 05:44:49;;;;;;;12.38;6.95;;;16.40;99.90;;;;;;6306054;22;20027;-66
2021/07/29 05:47:14;;;;;;;13.73;5.88;;;16.40;99.90;;;;;;6305155;22;20010;-66
2021/07/29 05:49:40;;;;;;;13.07;4.82;;;16.50;99.90;;;;;;6304443;22;20007;-66
2021/07/29 05:52:06;;;;;;;9.07;4.40;;;16.60;99.90;;;;;;6305718;22;20007;-66
2021/07/29 05:54:31;;;;;;;10.35;3.55;;;16.70;99.90;;;;;;6305702;22;20027;-66
2021/07/29 05:56:57;;;;;;;9.40;3.78;;;16.70;99.90;;;;;;6305240;22;20025;-65
2021/07/29 05:59:22;;;;;;;11.68;3.38;;;16.70;99.90;;;;;;6305288;22;20068;-67
2021/07/29 06:01:48;;;;;;;7.28;3.35;;;16.80;99.90;;;;;;6305798;22;20079;-65
2021/07/29 06:04:14;;;;;;;7.53;3.22;;;16.80;99.90;;;;;;6305626;22;20379;-66
2021/07/29 06:06:39;;;;;;;7.15;2.90;;;16.80;99.90;;;;;;6277695;22;20003;-66
2021/07/29 06:09:05;;;;;;;9.57;3.33;;;16.80;99.90;;;;;;6305631;22;19999;-67
2021/07/29 06:11:32;;;;;;;10.13;3.80;;;16.80;99.90;;;;;;6305343;22;20002;-67
2021/07/29 06:13:59;;;;;;;14.13;3.75;;;16.90;99.90;;;;;;6305399;22;19995;-67
2021/07/29 06:16:24;;;;;;;12.77;3.22;;;16.90;99.90;;;;;;6305393;22;20451;-67
2021/07/29 06:19:08;;;;;;;6.18;2.65;;;16.90;99.90;;;;;;6305914;22;20003;-67
2021/07/29 06:21:35;;;;;;;4.35;2.63;;;17.00;99.90;;;;;;6305465;22;20052;-67
2021/07/29 06:24:00;;;;;;;8.43;3.03;;;17.00;99.90;;;;;;6305296;22;20003;-65
2021/07/29 06:26:26;;;;;;;10.20;3.72;;;17.10;99.90;;;;;;6304761;22;20053;-67
2021/07/29 06:28:52;;;;;;;8.85;2.92;;;17.10;99.90;;;;;;6305438;22;20056;-65
2021/07/29 06:31:17;;;;;;;8.38;2.63;;;17.20;99.90;;;;;;6305283;22;20450;-65
2021/07/29 06:33:43;;;;;;;9.60;2.83;;;17.20;99.90;;;;;;6277829;22;19995;-64
2021/07/29 06:36:08;;;;;;;7.40;2.85;;;17.20;99.90;;;;;;6304513;22;20003;-67
2021/07/29 06:38:34;;;;;;;11.93;3.03;;;17.20;99.90;;;;;;6277880;22;20078;-66
2021/07/29 06:41:03;;;;;;;9.80;3.15;;;17.30;99.90;;;;;;6305224;22;20440;-67
2021/07/29 06:43:28;;;;;;;10.35;2.80;;;17.30;99.90;;;;;;6305503;22;20095;-66
2021/07/29 06:45:54;;;;;;;8.93;2.63;;;17.40;99.90;;;;;;6304771;22;20074;-66
2021/07/29 06:48:19;;;;;;;9.13;2.45;;;17.40;99.90;;;;;;6305214;22;20003;-68
2021/07/29 06:50:45;;;;;;;6.85;1.70;;;17.40;99.90;;;;;;6305200;22;20007;-67
2021/07/29 06:53:11;;;;;;;11.57;2.33;;;17.40;99.90;;;;;;6305054;22;20343;-65
2021/07/29 06:55:37;;;;;;;7.32;2.30;;;17.40;99.90;;;;;;6305274;22;19999;-67
2021/07/29 06:58:03;;;;;;;8.75;2.20;;;17.40;99.90;;;;;;6304841;22;20014;-65
2021/07/29 07:00:28;;;;;;;8.55;2.67;;;17.50;99.90;;;;;;6304474;22;20025;-67
2021/07/29 07:02:54;;;;;;;8.50;2.42;;;17.40;99.90;;;;;;6304887;22;20004;-67
2021/07/29 07:05:19;;;;;;;10.43;2.28;;;17.40;99.90;;;;;;6304605;22;20082;-67
2021/07/29 07:07:45;;;;;;;10.95;2.33;;;17.50;99.90;;;;;;6305090;22;20376;-64
2021/07/29 07:10:11;;;;;;;16.25;2.97;;;17.50;99.90;;;;;;6304462;22;19999;-66
2021/07/29 07:12:36;;;;;;;6.53;2.15;;;17.60;99.90;;;;;;6305087;22;19999;-67
2021/07/29 07:15:03;;;;;;;7.57;2.30;;;17.60;99.90;;;;;;6305022;22;20030;-67
2021/07/29 07:17:28;;;;;;;11.95;2.42;;;17.60;99.90;;;;;;6304543;22;20378;-67
2021/07/29 07:19:58;;;;;;;13.93;2.50;;;17.60;99.90;;;;;;6304582;22;20003;-65
2021/07/29 07:22:24;;;;;;;14.93;2.70;;;17.70;99.90;;;;;;6301062;22;20011;-65
2021/07/29 07:24:50;;;;;;;10.25;2.60;;;17.70;99.90;;;;;;6304725;22;20448;-65
2021/07/29 07:27:15;;;;;;;5.75;2.45;;;17.80;99.90;;;;;;6304664;22;19999;-65
2021/07/29 07:29:41;;;;;;;4.88;2.45;;;17.90;99.90;;;;;;6304724;22;20006;-61
2021/07/29 07:32:07;;;;;;;9.40;2.35;;;17.90;99.90;;;;;;6304940;22;20003;-61
2021/07/29 07:34:32;;;;;;;11.35;3.08;;;18.00;99.90;;;;;;6304039;22;19995;-60
2021/07/29 07:36:58;;;;;;;10.32;2.85;;;18.10;99.90;;;;;;6304011;22;20004;-62
2021/07/29 07:39:24;;;;;;;9.93;2.63;;;18.20;99.90;;;;;;6304129;22;20010;-61
2021/07/29 07:41:51;;;;;;;10.20;2.60;;;18.20;99.90;;;;;;6302627;22;20000;-59
2021/07/29 07:44:16;;;;;;;9.85;2.90;;;18.20;99.90;;;;;;6303320;22;20003;-61
2021/07/29 07:46:42;;;;;;;7.40;2.75;;;18.30;99.90;;;;;;6303780;22;20000;-60
2021/07/29 07:49:07;;;;;;;11.15;2.47;;;18.20;99.90;;;;;;6305341;22;20000;-61
2021/07/29 07:51:33;;;;;;;12.57;3.00;;;18.20;99.90;;;;;;6305350;22;19999;-62
2021/07/29 07:53:58;;;;;;;8.70;2.65;;;18.30;99.90;;;;;;6305207;22;20078;-62
2021/07/29 07:56:24;;;;;;;7.93;2.38;;;18.20;99.90;;;;;;6304531;22;20011;-61
2021/07/29 07:58:50;;;;;;;7.07;2.30;;;18.30;99.90;;;;;;6305287;22;20014;-60
2021/07/29 08:01:15;;;;;;;4.80;1.83;;;18.40;99.90;;;;;;6305741;22;20003;-62
2021/07/29 08:03:41;;;;;;;9.85;2.63;;;18.40;99.90;;;;;;6305484;22;20026;-60
2021/07/29 08:06:07;;;;;;;8.77;2.08;;;18.40;99.90;;;;;;6304560;22;20007;-61
2021/07/29 08:08:32;;;;;;;5.35;1.90;;;18.40;99.90;;;;;;6305056;22;20012;-60
2021/07/29 08:10:58;;;;;;;7.28;2.22;;;18.40;99.90;;;;;;6278071;22;20010;-62
2021/07/29 08:13:24;;;;;;;12.85;3.15;;;18.40;99.90;;;;;;6306001;22;20003;-62
2021/07/29 08:15:50;;;;;;;7.60;2.85;;;18.60;99.90;;;;;;6304736;22;20023;-63
2021/07/29 08:18:16;;;;;;;11.95;2.40;;;18.50;99.90;;;;;;6304605;22;19999;-63
2021/07/29 08:20:43;;;;;;;8.00;2.28;;;18.50;99.90;;;;;;6304694;22;20026;-62
2021/07/29 08:23:08;;;;;;;4.75;1.65;;;18.60;99.90;;;;;;6305033;22;20027;-61
2021/07/29 08:25:35;;;;;;;15.65;2.67;;;18.60;99.90;;;;;;6305257;22;20026;-62
2021/07/29 08:28:01;;;;;;;7.18;2.22;;;18.50;99.90;;;;;;6305008;22;20011;-60
2021/07/29 08:30:27;;;;;;;6.93;1.98;;;18.50;99.90;;;;;;6278397;22;20003;-62
2021/07/29 08:32:52;;;;;;;7.78;1.80;;;18.50;99.90;;;;;;6305454;22;20002;-63
2021/07/29 08:35:18;;;;;;;8.63;1.80;;;18.60;99.90;;;;;;6305017;22;19999;-59
2021/07/29 08:37:47;;;;;;;10.80;2.00;;;18.60;99.90;;;;;;6304285;22;19995;-61
2021/07/29 08:40:20;;;;;;;6.80;1.70;;;18.70;99.90;;;;;;6303991;22;20342;-60
2021/07/29 08:42:46;;;;;;;12.43;2.15;;;18.70;99.90;;;;;;6306024;22;20340;-61
2021/07/29 08:45:12;;;;;;;5.05;1.40;;;18.90;99.90;;;;;;6305405;22;20011;-61
2021/07/29 08:47:42;;;;;;;10.13;1.73;;;18.90;99.90;;;;;;6304418;22;20393;-60
2021/07/29 08:50:08;;;;;;;6.10;1.30;;;19.00;99.90;;;;;;6305101;22;20010;-62
2021/07/29 08:52:33;;;;;;;3.42;1.25;;;18.90;99.90;;;;;;6304999;22;20528;-64
2021/07/29 08:55:00;;;;;;;4.13;1.20;;;18.90;99.90;;;;;;6305286;22;20085;-63
2021/07/29 08:57:28;;;;;;;6.95;1.33;;;18.80;99.90;;;;;;6304401;22;20014;-63
2021/07/29 08:59:54;;;;;;;8.43;1.73;;;18.80;99.90;;;;;;6304923;22;20010;-64
2021/07/29 09:02:27;;;;;;;7.55;1.75;;;18.90;99.90;;;;;;6305756;22;19999;-64
2021/07/29 09:05:08;;;;;;;6.00;1.48;;;18.90;99.90;;;;;;6304985;22;20003;-63
2021/07/29 09:07:34;;;;;;;8.23;2.40;;;18.80;99.90;;;;;;6305623;22;20000;-63
2021/07/29 09:10:00;;;;;;;9.82;1.33;;;18.70;99.90;;;;;;6305819;22;20003;-63
2021/07/29 09:12:26;;;;;;;2.15;1.02;;;18.80;99.90;;;;;;6306074;22;20055;-63
2021/07/29 09:14:53;;;;;;;7.53;1.17;;;18.80;99.90;;;;;;6306831;22;20014;-61
2021/07/29 09:17:20;;;;;;;4.97;1.50;;;19.00;99.90;;;;;;6304893;22;19999;-61
2021/07/29 09:19:48;;;;;;;7.53;1.42;;;19.30;99.90;;;;;;6305137;22;20007;-62
2021/07/29 09:22:19;;;;;;;5.45;1.40;;;19.50;99.90;;;;;;6305825;22;19999;-61
2021/07/29 09:25:21;;;;;;;7.75;1.75;;;19.50;99.90;;;;;;6305588;22;20003;-62
2021/07/29 09:27:49;;;;;;;6.45;1.40;;;19.80;99.90;;;;;;6301305;22;20042;-62
2021/07/29 09:30:24;;;;;;;7.72;1.52;;;19.90;99.90;;;;;;6305944;22;19999;-60
2021/07/29 09:32:53;;;;;;;6.60;1.58;;;20.00;99.90;;;;;;6305210;22;20003;-64
2021/07/29 09:35:33;;;;;;;6.85;1.33;;;20.00;99.90;;;;;;6304990;22;20000;-67
2021/07/29 09:38:06;;;;;;;3.55;1.15;;;19.80;99.90;;;;;;6305271;22;20003;-64
2021/07/29 09:40:44;;;;;;;8.80;1.90;;;19.60;99.90;;;;;;6305608;22;19999;-64
2021/07/29 09:43:15;;;;;;;5.95;1.50;;;19.60;99.90;;;;;;6304959;22;19999;-62
2021/07/29 09:45:42;;;;;;;8.93;1.80;;;19.40;99.90;;;;;;6304907;22;20386;-63
2021/07/29 09:48:09;;;;;;;11.43;1.83;;;19.40;99.90;;;;;;6304963;22;19999;-61
2021/07/29 09:50:36;;;;;;;6.30;1.48;;;19.40;99.90;;;;;;6305376;22;20008;-61
2021/07/29 09:53:02;;;;;;;8.52;1.67;;;19.50;99.90;;;;;;6306051;22;20003;-61
2021/07/29 09:55:29;;;;;;;10.90;1.63;;;19.70;99.90;;;;;;6305061;22;20069;-62
2021/07/29 09:57:56;;;;;;;3.38;1.40;;;20.00;99.90;;;;;;6304265;22;20010;-60
2021/07/29 10:00:21;;;;;;;5.35;1.23;;;20.30;99.90;;;;;;6305099;22;20007;-62
2021/07/29 10:02:47;;;;;;;10.15;1.55;;;20.60;99.90;;;;;;6304416;22;20120;-62
2021/07/29 10:05:24;;;;;;;5.80;1.67;;;20.80;99.90;;;;;;6305095;22;20010;-63
2021/07/29 10:07:53;;;;;;;9.48;1.70;;;20.80;99.90;;;;;;6305037;22;20141;-60
2021/07/29 10:10:22;;;;;;;10.05;2.30;;;20.90;99.90;;;;;;6304941;22;20004;-63
2021/07/29 10:12:49;;;;;;;18.13;3.45;;;21.30;99.90;;;;;;6304587;22;19995;-62
2021/07/29 10:15:44;;;;;;;8.57;1.67;;;21.40;99.90;;;;;;6304680;22;20070;-61
2021/07/29 10:18:14;;;;;;;8.52;1.73;;;21.80;99.90;;;;;;6304957;22;20005;-62
2021/07/29 10:20:41;;;;;;;11.40;2.03;;;21.80;99.90;;;;;;6304702;22;20027;-64
2021/07/29 10:23:12;;;;;;;5.60;1.25;;;21.70;99.90;;;;;;6305097;22;20003;-63
2021/07/29 10:26:08;;;;;;;8.77;1.52;;;21.40;99.90;;;;;;6304818;22;20025;-62
2021/07/29 10:28:37;;;;;;;5.43;1.65;;;21.00;99.90;;;;;;6252001;22;20080;-63
2021/07/29 10:31:04;;;;;;;5.38;1.63;;;20.80;99.90;;;;;;6304426;22;20008;-63
2021/07/29 10:33:29;;;;;;;6.45;1.65;;;20.60;99.90;;;;;;6305299;22;19996;-61
2021/07/29 10:35:56;;;;;;;6.07;1.80;;;20.40;99.90;;;;;;6304078;22;20002;-61
2021/07/29 10:38:51;;;;;;;6.63;1.50;;;20.40;99.90;;;;;;6304097;22;20457;-61
2021/07/29 10:41:22;;;;;;;7.68;1.60;;;20.20;99.90;;;;;;6278290;22;20006;-64
2021/07/29 10:43:48;;;;;;;6.50;1.70;;;20.30;99.90;;;;;;6304199;22;19995;-62
2021/07/29 10:46:14;;;;;;;10.30;1.80;;;20.50;99.90;;;;;;6303804;22;20003;-61
2021/07/29 10:48:47;;;;;;;7.55;1.85;;;20.90;99.90;;;;;;6304207;22;19995;-63
2021/07/29 10:51:13;;;;;;;8.18;2.45;;;21.00;99.90;;;;;;6304451;22;20015;-63
2021/07/29 10:53:46;;;;;;;11.45;1.83;;;21.40;99.90;;;;;;6304274;22;20374;-60
2021/07/29 10:56:14;;;;;;;5.97;1.70;;;21.70;99.90;;;;;;6304230;22;20389;-62
2021/07/29 10:58:44;;;;;;;9.63;2.00;;;21.80;99.90;;;;;;6300410;22;20065;-62
2021/07/29 11:01:11;;;;;;;7.90;1.88;;;21.50;99.90;;;;;;6300611;22;20007;-62
2021/07/29 11:03:50;;;;;;;6.15;1.50;;;21.40;99.90;;;;;;6303308;22;20003;-63
2021/07/29 11:06:37;;;;;;;7.68;1.85;;;21.20;99.90;;;;;;6302294;22;20026;-62
2021/07/29 11:09:16;;;;;;;6.35;1.42;;;21.30;99.90;;;;;;6299744;22;20359;-62
2021/07/29 11:11:43;;;;;;;11.82;1.80;;;21.50;99.90;;;;;;6300929;22;20462;-62
2021/07/29 11:14:10;;;;;;;10.35;1.85;;;21.40;99.90;;;;;;6302761;22;20015;-62
2021/07/29 11:16:37;;;;;;;8.27;1.92;;;21.30;99.90;;;;;;6301691;22;20062;-63
2021/07/29 11:19:05;;;;;;;10.85;1.83;;;21.70;99.90;;;;;;6303047;22;20450;-62
2021/07/29 11:21:31;;;;;;;11.30;1.80;;;22.10;99.90;;;;;;6303739;22;20007;-64
2021/07/29 11:23:57;;;;;;;8.23;1.80;;;22.20;99.90;;;;;;6304735;22;20069;-62
2021/07/29 11:26:23;;;;;;;4.72;1.45;;;22.20;99.90;;;;;;6305033;22;20007;-63
2021/07/29 11:29:08;;;;;;;10.15;2.03;;;22.60;99.90;;;;;;6304768;22;20007;-62
2021/07/29 11:31:39;;;;;;;6.38;1.70;;;22.90;99.90;;;;;;6302452;22;20038;-62
2021/07/29 11:34:05;;;;;;;4.28;1.58;;;23.00;99.90;;;;;;6303580;22;20000;-62
2021/07/29 11:36:32;;;;;;;46.17;3.92;;;23.30;99.90;;;;;;6304006;22;20038;-62
2021/07/29 11:39:00;;;;;;;6.70;1.55;;;23.60;99.90;;;;;;6304266;22;20471;-62
2021/07/29 11:41:26;;;;;;;5.15;1.60;;;23.30;99.90;;;;;;6303806;22;20022;-62
2021/07/29 11:43:59;;;;;;;14.23;2.08;;;23.10;99.90;;;;;;6303042;22;20074;-63
2021/07/29 11:46:24;;;;;;;4.78;1.40;;;23.00;99.90;;;;;;6302512;22;20011;-57
2021/07/29 11:49:04;;;;;;;11.00;1.77;;;22.50;99.90;;;;;;6301605;22;20039;-61
2021/07/29 11:51:30;;;;;;;12.23;1.83;;;22.20;99.90;;;;;;6300969;22;20427;-59
2021/07/29 11:53:55;;;;;;;13.73;1.67;;;22.20;99.90;;;;;;6301001;22;20100;-61
2021/07/29 11:56:21;;;;;;;7.93;1.70;;;22.40;99.90;;;;;;6300776;22;20514;-61
2021/07/29 11:58:58;;;;;;;8.40;2.05;;;22.30;99.90;;;;;;6300983;22;20063;-61
2021/07/29 12:01:24;;;;;;;11.98;1.80;;;22.20;99.90;;;;;;6300200;22;20311;-61
2021/07/29 12:03:51;;;;;;;12.60;1.75;;;22.50;99.90;;;;;;6301279;22;20489;-61
2021/07/29 12:06:17;;;;;;;8.15;1.95;;;22.30;99.90;;;;;;6299913;22;20320;-60
2021/07/29 12:08:46;;;;;;;17.58;2.58;;;21.90;99.90;;;;;;6300131;22;20015;-62
2021/07/29 12:11:16;;;;;;;9.27;1.40;;;21.90;99.90;;;;;;6300514;22;20096;-63
2021/07/29 12:13:43;;;;;;;8.02;1.60;;;21.70;99.90;;;;;;6300287;22;20026;-62
2021/07/29 12:16:09;;;;;;;8.00;1.80;;;21.70;99.90;;;;;;6299861;22;20078;-63
2021/07/29 12:18:34;;;;;;;9.90;1.70;;;21.80;99.90;;;;;;6304640;22;20030;-63
2021/07/29 12:21:01;;;;;;;7.22;2.22;;;22.40;99.90;;;;;;6304085;22;20037;-62
2021/07/29 12:23:27;;;;;;;6.88;1.60;;;22.60;99.90;;;;;;6304060;22;20066;-62
2021/07/29 12:25:54;;;;;;;9.02;1.85;;;22.60;99.90;;;;;;6303730;22;20003;-62
2021/07/29 12:28:39;;;;;;;13.65;1.90;;;22.30;99.90;;;;;;6304069;22;20007;-62
2021/07/29 12:31:28;;;;;;;8.48;2.00;;;21.80;99.90;;;;;;6304903;22;20342;-64
2021/07/29 12:33:59;;;;;;;12.45;2.13;;;21.60;99.90;;;;;;6304429;22;20004;-64
2021/07/29 12:36:43;;;;;;;8.60;2.22;;;21.50;99.90;;;;;;6304766;22;20454;-64
2021/07/29 12:39:09;;;;;;;6.23;1.70;;;21.40;99.90;;;;;;6304925;22;20026;-64
2021/07/29 12:41:36;;;;;;;9.32;1.83;;;21.30;99.90;;;;;;6304130;22;20665;-64
2021/07/29 12:44:12;;;;;;;5.82;1.80;;;21.60;99.90;;;;;;6304690;22;20004;-64